sensor_id;sensor_type;location;lat;lon;timestamp;P1;durP1;ratioP1;P2;durP2;ratioP2
3549;SDS011;45572;48.804;8.330;2023-03-20T00:00:26;3.55;;;2.10;;
3549;SDS011;45572;48.804;8.330;2023-03-20T00:02:58;3.22;;;1.88;;
3549;SDS011;45572;48.804;8.330;2023-03-20T00:05:26;2.70;;;1.83;;
3549;SDS011;45572;48.804;8.330;2023-03-20T00:07:55;3.17;;;1.90;;
3549;SDS011;45572;48.804;8.330;2023-03-20T00:10:25;1.80;;;1.50;;
3549;SDS011;45572;48.804;8.330;2023-03-20T00:12:56;1.95;;;1.70;;
3549;SDS011;45572;48.804;8.330;2023-03-20T00:15:26;2.35;;;2.03;;
3549;SDS011;45572;48.804;8.330;2023-03-20T00:17:57;3.10;;;2.00;;
3549;SDS011;45572;48.804;8.330;2023-03-20T00:20:25;2.80;;;2.33;;
3549;SDS011;45572;48.804;8.330;2023-03-20T00:22:56;3.75;;;1.92;;
3549;SDS011;45572;48.804;8.330;2023-03-20T00:25:24;3.97;;;2.63;;
3549;SDS011;45572;48.804;8.330;2023-03-20T00:27:53;4.28;;;2.33;;
3549;SDS011;45572;48.804;8.330;2023-03-20T00:30:23;2.20;;;2.00;;
3549;SDS011;45572;48.804;8.330;2023-03-20T00:32:55;4.15;;;2.92;;
3549;SDS011;45572;48.804;8.330;2023-03-20T00:35:27;3.55;;;2.50;;
3549;SDS011;45572;48.804;8.330;2023-03-20T00:37:57;3.08;;;2.17;;
3549;SDS011;45572;48.804;8.330;2023-03-20T00:40:26;3.90;;;2.28;;
3549;SDS011;45572;48.804;8.330;2023-03-20T00:42:58;4.75;;;2.22;;
3549;SDS011;45572;48.804;8.330;2023-03-20T00:45:28;2.08;;;1.80;;
3549;SDS011;45572;48.804;8.330;2023-03-20T00:47:58;3.15;;;1.48;;
3549;SDS011;45572;48.804;8.330;2023-03-20T00:50:29;2.38;;;1.65;;
3549;SDS011;45572;48.804;8.330;2023-03-20T00:52:57;5.00;;;1.85;;
3549;SDS011;45572;48.804;8.330;2023-03-20T00:55:26;7.00;;;1.25;;
3549;SDS011;45572;48.804;8.330;2023-03-20T00:57:55;2.33;;;1.60;;
3549;SDS011;45572;48.804;8.330;2023-03-20T01:00:26;3.75;;;2.08;;
3549;SDS011;45572;48.804;8.330;2023-03-20T01:03:05;2.25;;;1.88;;
3549;SDS011;45572;48.804;8.330;2023-03-20T01:05:39;2.70;;;1.55;;
3549;SDS011;45572;48.804;8.330;2023-03-20T01:08:11;1.50;;;1.30;;
3549;SDS011;45572;48.804;8.330;2023-03-20T01:10:40;3.40;;;2.03;;
3549;SDS011;45572;48.804;8.330;2023-03-20T01:13:12;4.03;;;2.00;;
3549;SDS011;45572;48.804;8.330;2023-03-20T01:15:45;1.63;;;1.40;;
3549;SDS011;45572;48.804;8.330;2023-03-20T01:18:14;3.20;;;1.83;;
3549;SDS011;45572;48.804;8.330;2023-03-20T01:20:44;1.92;;;1.50;;
3549;SDS011;45572;48.804;8.330;2023-03-20T01:23:12;2.47;;;1.85;;
3549;SDS011;45572;48.804;8.330;2023-03-20T01:25:41;1.95;;;1.02;;
3549;SDS011;45572;48.804;8.330;2023-03-20T01:28:13;2.13;;;1.48;;
3549;SDS011;45572;48.804;8.330;2023-03-20T01:30:43;1.25;;;0.98;;
3549;SDS011;45572;48.804;8.330;2023-03-20T01:33:13;2.45;;;1.20;;
3549;SDS011;45572;48.804;8.330;2023-03-20T01:35:46;1.45;;;1.00;;
3549;SDS011;45572;48.804;8.330;2023-03-20T01:38:17;2.88;;;1.30;;
3549;SDS011;45572;48.804;8.330;2023-03-20T01:40:49;9.75;;;1.60;;
3549;SDS011;45572;48.804;8.330;2023-03-20T01:43:22;3.60;;;1.65;;
3549;SDS011;45572;48.804;8.330;2023-03-20T01:45:53;2.42;;;1.17;;
3549;SDS011;45572;48.804;8.330;2023-03-20T01:48:26;5.75;;;1.65;;
3549;SDS011;45572;48.804;8.330;2023-03-20T01:51:24;2.15;;;1.30;;
3549;SDS011;45572;48.804;8.330;2023-03-20T01:53:58;2.22;;;1.38;;
3549;SDS011;45572;48.804;8.330;2023-03-20T01:56:31;2.05;;;1.35;;
3549;SDS011;45572;48.804;8.330;2023-03-20T01:59:04;2.00;;;1.60;;
3549;SDS011;45572;48.804;8.330;2023-03-20T02:01:37;3.55;;;1.48;;
3549;SDS011;45572;48.804;8.330;2023-03-20T02:04:06;1.85;;;1.38;;
3549;SDS011;45572;48.804;8.330;2023-03-20T02:06:48;3.20;;;1.40;;
3549;SDS011;45572;48.804;8.330;2023-03-20T02:09:27;3.20;;;1.30;;
3549;SDS011;45572;48.804;8.330;2023-03-20T02:11:56;1.67;;;1.10;;
3549;SDS011;45572;48.804;8.330;2023-03-20T02:14:26;11.20;;;1.73;;
3549;SDS011;45572;48.804;8.330;2023-03-20T02:17:02;2.30;;;1.67;;
3549;SDS011;45572;48.804;8.330;2023-03-20T02:19:42;1.50;;;1.20;;
3549;SDS011;45572;48.804;8.330;2023-03-20T02:25:24;2.95;;;1.50;;
3549;SDS011;45572;48.804;8.330;2023-03-20T02:28:18;4.95;;;1.45;;
3549;SDS011;45572;48.804;8.330;2023-03-20T02:31:06;1.23;;;1.02;;
3549;SDS011;45572;48.804;8.330;2023-03-20T02:33:54;11.95;;;2.22;;
3549;SDS011;45572;48.804;8.330;2023-03-20T02:36:40;2.33;;;1.52;;
3549;SDS011;45572;48.804;8.330;2023-03-20T02:39:25;1.25;;;1.15;;
3549;SDS011;45572;48.804;8.330;2023-03-20T02:42:10;2.08;;;1.02;;
3549;SDS011;45572;48.804;8.330;2023-03-20T02:44:46;3.05;;;1.30;;
3549;SDS011;45572;48.804;8.330;2023-03-20T02:47:20;1.70;;;1.42;;
3549;SDS011;45572;48.804;8.330;2023-03-20T02:49:54;2.38;;;1.20;;
3549;SDS011;45572;48.804;8.330;2023-03-20T02:52:31;1.95;;;1.02;;
3549;SDS011;45572;48.804;8.330;2023-03-20T02:55:07;7.38;;;1.38;;
3549;SDS011;45572;48.804;8.330;2023-03-20T02:57:43;5.05;;;1.42;;
3549;SDS011;45572;48.804;8.330;2023-03-20T03:00:21;2.42;;;1.75;;
3549;SDS011;45572;48.804;8.330;2023-03-20T03:02:56;1.50;;;1.20;;
3549;SDS011;45572;48.804;8.330;2023-03-20T03:05:33;1.55;;;1.13;;
3549;SDS011;45572;48.804;8.330;2023-03-20T03:08:05;2.00;;;1.35;;
3549;SDS011;45572;48.804;8.330;2023-03-20T03:10:40;1.70;;;1.45;;
3549;SDS011;45572;48.804;8.330;2023-03-20T03:13:12;3.10;;;1.33;;
3549;SDS011;45572;48.804;8.330;2023-03-20T03:15:44;2.33;;;1.30;;
3549;SDS011;45572;48.804;8.330;2023-03-20T03:18:17;1.65;;;1.08;;
3549;SDS011;45572;48.804;8.330;2023-03-20T03:20:47;1.90;;;1.20;;
3549;SDS011;45572;48.804;8.330;2023-03-20T03:23:25;2.63;;;1.27;;
3549;SDS011;45572;48.804;8.330;2023-03-20T03:25:56;1.83;;;1.30;;
3549;SDS011;45572;48.804;8.330;2023-03-20T03:28:27;3.70;;;1.40;;
3549;SDS011;45572;48.804;8.330;2023-03-20T03:31:02;1.50;;;1.30;;
3549;SDS011;45572;48.804;8.330;2023-03-20T03:33:35;3.30;;;1.02;;
3549;SDS011;45572;48.804;8.330;2023-03-20T03:36:07;4.03;;;1.30;;
3549;SDS011;45572;48.804;8.330;2023-03-20T03:38:41;2.05;;;1.40;;
3549;SDS011;45572;48.804;8.330;2023-03-20T03:41:19;1.67;;;1.05;;
3549;SDS011;45572;48.804;8.330;2023-03-20T03:43:52;1.30;;;1.17;;
3549;SDS011;45572;48.804;8.330;2023-03-20T03:46:31;1.35;;;1.10;;
3549;SDS011;45572;48.804;8.330;2023-03-20T03:49:11;2.20;;;1.15;;
3549;SDS011;45572;48.804;8.330;2023-03-20T03:51:42;12.57;;;2.53;;
3549;SDS011;45572;48.804;8.330;2023-03-20T03:54:16;1.90;;;0.93;;
3549;SDS011;45572;48.804;8.330;2023-03-20T03:57:08;2.92;;;1.90;;
3549;SDS011;45572;48.804;8.330;2023-03-20T03:59:39;2.25;;;1.48;;
3549;SDS011;45572;48.804;8.330;2023-03-20T04:02:09;3.28;;;1.23;;
3549;SDS011;45572;48.804;8.330;2023-03-20T04:04:40;3.00;;;1.40;;
3549;SDS011;45572;48.804;8.330;2023-03-20T04:07:09;1.80;;;1.30;;
3549;SDS011;45572;48.804;8.330;2023-03-20T04:09:37;1.90;;;1.48;;
3549;SDS011;45572;48.804;8.330;2023-03-20T04:12:05;6.93;;;1.17;;
3549;SDS011;45572;48.804;8.330;2023-03-20T04:14:46;3.03;;;1.80;;
3549;SDS011;45572;48.804;8.330;2023-03-20T04:17:15;3.20;;;1.80;;
3549;SDS011;45572;48.804;8.330;2023-03-20T04:19:43;3.00;;;2.10;;
3549;SDS011;45572;48.804;8.330;2023-03-20T04:22:10;4.78;;;2.00;;
3549;SDS011;45572;48.804;8.330;2023-03-20T04:24:38;3.00;;;2.15;;
3549;SDS011;45572;48.804;8.330;2023-03-20T04:27:06;1.42;;;1.13;;
3549;SDS011;45572;48.804;8.330;2023-03-20T04:29:39;1.73;;;1.17;;
3549;SDS011;45572;48.804;8.330;2023-03-20T04:32:23;1.45;;;1.23;;
3549;SDS011;45572;48.804;8.330;2023-03-20T04:34:59;3.42;;;1.95;;
3549;SDS011;45572;48.804;8.330;2023-03-20T04:37:33;2.80;;;1.58;;
3549;SDS011;45572;48.804;8.330;2023-03-20T04:40:05;3.03;;;1.65;;
3549;SDS011;45572;48.804;8.330;2023-03-20T04:42:33;3.20;;;1.92;;
3549;SDS011;45572;48.804;8.330;2023-03-20T04:45:06;3.45;;;2.13;;
3549;SDS011;45572;48.804;8.330;2023-03-20T04:47:36;3.72;;;2.80;;
3549;SDS011;45572;48.804;8.330;2023-03-20T04:50:05;3.67;;;2.30;;
3549;SDS011;45572;48.804;8.330;2023-03-20T04:52:34;2.90;;;2.30;;
3549;SDS011;45572;48.804;8.330;2023-03-20T04:55:02;3.22;;;2.40;;
3549;SDS011;45572;48.804;8.330;2023-03-20T04:57:30;4.35;;;2.85;;
3549;SDS011;45572;48.804;8.330;2023-03-20T04:59:58;7.00;;;2.95;;
3549;SDS011;45572;48.804;8.330;2023-03-20T05:02:27;4.35;;;3.10;;
3549;SDS011;45572;48.804;8.330;2023-03-20T05:04:55;4.72;;;3.25;;
3549;SDS011;45572;48.804;8.330;2023-03-20T05:07:23;4.95;;;3.10;;
3549;SDS011;45572;48.804;8.330;2023-03-20T05:09:58;4.57;;;3.25;;
3549;SDS011;45572;48.804;8.330;2023-03-20T05:12:31;4.82;;;3.92;;
3549;SDS011;45572;48.804;8.330;2023-03-20T05:15:09;4.80;;;3.33;;
3549;SDS011;45572;48.804;8.330;2023-03-20T05:17:50;5.57;;;3.58;;
3549;SDS011;45572;48.804;8.330;2023-03-20T05:20:38;6.63;;;4.80;;
3549;SDS011;45572;48.804;8.330;2023-03-20T05:23:26;6.82;;;4.53;;
3549;SDS011;45572;48.804;8.330;2023-03-20T05:26:13;7.40;;;4.90;;
3549;SDS011;45572;48.804;8.330;2023-03-20T05:29:01;5.35;;;3.88;;
3549;SDS011;45572;48.804;8.330;2023-03-20T05:31:46;6.13;;;3.88;;
3549;SDS011;45572;48.804;8.330;2023-03-20T05:34:28;2.80;;;2.60;;
3549;SDS011;45572;48.804;8.330;2023-03-20T05:37:06;6.22;;;2.30;;
3549;SDS011;45572;48.804;8.330;2023-03-20T05:39:54;5.43;;;2.40;;
3549;SDS011;45572;48.804;8.330;2023-03-20T05:42:38;5.03;;;2.97;;
3549;SDS011;45572;48.804;8.330;2023-03-20T05:45:26;4.35;;;2.38;;
3549;SDS011;45572;48.804;8.330;2023-03-20T05:48:08;3.30;;;2.35;;
3549;SDS011;45572;48.804;8.330;2023-03-20T05:50:52;4.40;;;2.28;;
3549;SDS011;45572;48.804;8.330;2023-03-20T05:53:43;6.68;;;3.40;;
3549;SDS011;45572;48.804;8.330;2023-03-20T05:56:31;7.18;;;4.93;;
3549;SDS011;45572;48.804;8.330;2023-03-20T05:59:14;9.77;;;5.25;;
3549;SDS011;45572;48.804;8.330;2023-03-20T06:01:53;7.68;;;5.18;;
3549;SDS011;45572;48.804;8.330;2023-03-20T06:04:25;11.15;;;6.72;;
3549;SDS011;45572;48.804;8.330;2023-03-20T06:07:14;11.50;;;6.97;;
3549;SDS011;45572;48.804;8.330;2023-03-20T06:09:54;9.43;;;6.22;;
3549;SDS011;45572;48.804;8.330;2023-03-20T06:12:22;8.77;;;5.25;;
3549;SDS011;45572;48.804;8.330;2023-03-20T06:14:49;10.07;;;5.40;;
3549;SDS011;45572;48.804;8.330;2023-03-20T06:17:19;14.13;;;7.25;;
3549;SDS011;45572;48.804;8.330;2023-03-20T06:19:51;13.35;;;7.53;;
3549;SDS011;45572;48.804;8.330;2023-03-20T06:22:23;10.95;;;6.25;;
3549;SDS011;45572;48.804;8.330;2023-03-20T06:24:52;9.73;;;5.50;;
3549;SDS011;45572;48.804;8.330;2023-03-20T06:27:27;12.57;;;6.75;;
3549;SDS011;45572;48.804;8.330;2023-03-20T06:29:58;14.20;;;8.00;;
3549;SDS011;45572;48.804;8.330;2023-03-20T06:32:31;12.15;;;7.43;;
3549;SDS011;45572;48.804;8.330;2023-03-20T06:35:01;10.35;;;6.10;;
3549;SDS011;45572;48.804;8.330;2023-03-20T06:37:32;9.80;;;5.47;;
3549;SDS011;45572;48.804;8.330;2023-03-20T06:40:07;11.75;;;6.93;;
3549;SDS011;45572;48.804;8.330;2023-03-20T06:42:39;9.13;;;5.47;;
3549;SDS011;45572;48.804;8.330;2023-03-20T06:45:08;9.40;;;5.75;;
3549;SDS011;45572;48.804;8.330;2023-03-20T06:47:51;12.02;;;6.50;;
3549;SDS011;45572;48.804;8.330;2023-03-20T06:50:22;10.98;;;6.50;;
3549;SDS011;45572;48.804;8.330;2023-03-20T06:52:58;16.05;;;6.70;;
3549;SDS011;45572;48.804;8.330;2023-03-20T06:55:49;10.95;;;6.53;;
3549;SDS011;45572;48.804;8.330;2023-03-20T06:58:19;16.80;;;5.90;;
3549;SDS011;45572;48.804;8.330;2023-03-20T07:00:51;12.77;;;6.28;;
3549;SDS011;45572;48.804;8.330;2023-03-20T07:03:19;10.40;;;5.75;;
3549;SDS011;45572;48.804;8.330;2023-03-20T07:05:48;14.85;;;6.70;;
3549;SDS011;45572;48.804;8.330;2023-03-20T07:08:19;8.02;;;5.25;;
3549;SDS011;45572;48.804;8.330;2023-03-20T07:10:48;7.47;;;5.45;;
3549;SDS011;45572;48.804;8.330;2023-03-20T07:13:18;6.75;;;4.88;;
3549;SDS011;45572;48.804;8.330;2023-03-20T07:15:46;7.72;;;4.40;;
3549;SDS011;45572;48.804;8.330;2023-03-20T07:18:34;8.50;;;4.25;;
3549;SDS011;45572;48.804;8.330;2023-03-20T07:21:03;8.15;;;4.43;;
3549;SDS011;45572;48.804;8.330;2023-03-20T07:23:35;9.30;;;5.35;;
3549;SDS011;45572;48.804;8.330;2023-03-20T07:26:03;10.23;;;4.82;;
3549;SDS011;45572;48.804;8.330;2023-03-20T07:28:32;6.85;;;4.55;;
3549;SDS011;45572;48.804;8.330;2023-03-20T07:31:11;4.30;;;3.03;;
3549;SDS011;45572;48.804;8.330;2023-03-20T07:33:47;7.35;;;5.07;;
3549;SDS011;45572;48.804;8.330;2023-03-20T07:36:16;6.28;;;4.03;;
3549;SDS011;45572;48.804;8.330;2023-03-20T07:38:45;8.85;;;3.20;;
3549;SDS011;45572;48.804;8.330;2023-03-20T07:41:13;5.00;;;3.40;;
3549;SDS011;45572;48.804;8.330;2023-03-20T07:43:50;5.05;;;4.05;;
3549;SDS011;45572;48.804;8.330;2023-03-20T07:46:33;5.65;;;3.40;;
3549;SDS011;45572;48.804;8.330;2023-03-20T07:49:00;5.35;;;3.70;;
3549;SDS011;45572;48.804;8.330;2023-03-20T07:51:28;9.50;;;5.22;;
3549;SDS011;45572;48.804;8.330;2023-03-20T07:53:57;6.25;;;3.92;;
3549;SDS011;45572;48.804;8.330;2023-03-20T07:56:25;5.32;;;3.47;;
3549;SDS011;45572;48.804;8.330;2023-03-20T07:58:53;6.88;;;4.40;;
3549;SDS011;45572;48.804;8.330;2023-03-20T08:01:21;6.03;;;3.83;;
3549;SDS011;45572;48.804;8.330;2023-03-20T08:03:49;5.93;;;3.70;;
3549;SDS011;45572;48.804;8.330;2023-03-20T08:06:17;5.55;;;3.35;;
3549;SDS011;45572;48.804;8.330;2023-03-20T08:08:46;3.78;;;2.60;;
3549;SDS011;45572;48.804;8.330;2023-03-20T08:11:18;5.93;;;3.85;;
3549;SDS011;45572;48.804;8.330;2023-03-20T08:13:49;7.38;;;4.75;;
3549;SDS011;45572;48.804;8.330;2023-03-20T08:16:17;7.47;;;3.92;;
3549;SDS011;45572;48.804;8.330;2023-03-20T08:18:46;6.93;;;3.45;;
3549;SDS011;45572;48.804;8.330;2023-03-20T08:21:15;6.35;;;3.10;;
3549;SDS011;45572;48.804;8.330;2023-03-20T08:23:43;5.72;;;4.38;;
3549;SDS011;45572;48.804;8.330;2023-03-20T08:26:12;6.90;;;2.90;;
3549;SDS011;45572;48.804;8.330;2023-03-20T08:28:41;6.57;;;3.33;;
3549;SDS011;45572;48.804;8.330;2023-03-20T08:31:13;6.20;;;4.57;;
3549;SDS011;45572;48.804;8.330;2023-03-20T08:33:44;4.22;;;3.83;;
3549;SDS011;45572;48.804;8.330;2023-03-20T08:36:15;4.65;;;3.28;;
3549;SDS011;45572;48.804;8.330;2023-03-20T08:38:47;7.13;;;3.40;;
3549;SDS011;45572;48.804;8.330;2023-03-20T08:41:16;5.22;;;3.17;;
3549;SDS011;45572;48.804;8.330;2023-03-20T08:43:47;4.13;;;3.13;;
3549;SDS011;45572;48.804;8.330;2023-03-20T08:46:17;8.43;;;2.80;;
3549;SDS011;45572;48.804;8.330;2023-03-20T08:48:46;4.68;;;3.50;;
3549;SDS011;45572;48.804;8.330;2023-03-20T08:51:13;4.97;;;3.45;;
3549;SDS011;45572;48.804;8.330;2023-03-20T08:53:41;6.55;;;4.40;;
3549;SDS011;45572;48.804;8.330;2023-03-20T08:56:12;5.70;;;3.95;;
3549;SDS011;45572;48.804;8.330;2023-03-20T08:58:41;8.27;;;4.32;;
3549;SDS011;45572;48.804;8.330;2023-03-20T09:01:12;7.68;;;4.38;;
3549;SDS011;45572;48.804;8.330;2023-03-20T09:03:41;7.57;;;4.43;;
3549;SDS011;45572;48.804;8.330;2023-03-20T09:06:10;6.88;;;4.70;;
3549;SDS011;45572;48.804;8.330;2023-03-20T09:08:40;5.72;;;3.70;;
3549;SDS011;45572;48.804;8.330;2023-03-20T09:11:10;7.82;;;4.63;;
3549;SDS011;45572;48.804;8.330;2023-03-20T09:13:39;7.35;;;4.63;;
3549;SDS011;45572;48.804;8.330;2023-03-20T09:16:06;7.85;;;3.90;;
3549;SDS011;45572;48.804;8.330;2023-03-20T09:18:43;8.00;;;3.83;;
3549;SDS011;45572;48.804;8.330;2023-03-20T09:21:11;7.65;;;3.95;;
3549;SDS011;45572;48.804;8.330;2023-03-20T09:23:40;5.57;;;3.28;;
3549;SDS011;45572;48.804;8.330;2023-03-20T09:26:10;8.73;;;4.47;;
3549;SDS011;45572;48.804;8.330;2023-03-20T09:28:38;6.35;;;3.55;;
3549;SDS011;45572;48.804;8.330;2023-03-20T09:31:09;6.25;;;4.03;;
3549;SDS011;45572;48.804;8.330;2023-03-20T09:33:37;9.10;;;3.88;;
3549;SDS011;45572;48.804;8.330;2023-03-20T09:36:07;6.47;;;4.18;;
3549;SDS011;45572;48.804;8.330;2023-03-20T09:38:40;8.27;;;4.45;;
3549;SDS011;45572;48.804;8.330;2023-03-20T09:41:12;6.32;;;4.03;;
3549;SDS011;45572;48.804;8.330;2023-03-20T09:43:46;9.48;;;4.78;;
3549;SDS011;45572;48.804;8.330;2023-03-20T09:46:27;10.40;;;4.93;;
3549;SDS011;45572;48.804;8.330;2023-03-20T09:49:09;10.50;;;5.40;;
3549;SDS011;45572;48.804;8.330;2023-03-20T09:51:47;11.48;;;5.03;;
3549;SDS011;45572;48.804;8.330;2023-03-20T09:54:21;8.00;;;4.65;;
3549;SDS011;45572;48.804;8.330;2023-03-20T09:56:54;10.50;;;5.32;;
3549;SDS011;45572;48.804;8.330;2023-03-20T09:59:23;8.65;;;6.22;;
3549;SDS011;45572;48.804;8.330;2023-03-20T10:01:54;8.27;;;5.45;;
3549;SDS011;45572;48.804;8.330;2023-03-20T10:04:26;10.35;;;5.25;;
3549;SDS011;45572;48.804;8.330;2023-03-20T10:07:03;10.13;;;5.35;;
3549;SDS011;45572;48.804;8.330;2023-03-20T10:09:31;8.25;;;5.03;;
3549;SDS011;45572;48.804;8.330;2023-03-20T10:12:03;6.00;;;4.28;;
3549;SDS011;45572;48.804;8.330;2023-03-20T10:14:46;6.45;;;4.45;;
3549;SDS011;45572;48.804;8.330;2023-03-20T10:17:24;13.20;;;6.13;;
3549;SDS011;45572;48.804;8.330;2023-03-20T10:20:03;8.65;;;5.40;;
3549;SDS011;45572;48.804;8.330;2023-03-20T10:22:43;12.27;;;4.70;;
3549;SDS011;45572;48.804;8.330;2023-03-20T10:25:26;11.45;;;5.28;;
3549;SDS011;45572;48.804;8.330;2023-03-20T10:27:58;13.07;;;5.45;;
3549;SDS011;45572;48.804;8.330;2023-03-20T10:30:31;7.47;;;5.38;;
3549;SDS011;45572;48.804;8.330;2023-03-20T10:33:10;12.02;;;4.75;;
3549;SDS011;45572;48.804;8.330;2023-03-20T10:35:48;7.80;;;5.25;;
3549;SDS011;45572;48.804;8.330;2023-03-20T10:38:28;9.20;;;5.38;;
3549;SDS011;45572;48.804;8.330;2023-03-20T10:41:01;7.10;;;4.90;;
3549;SDS011;45572;48.804;8.330;2023-03-20T10:43:35;13.90;;;5.35;;
3549;SDS011;45572;48.804;8.330;2023-03-20T10:46:09;6.63;;;3.88;;
3549;SDS011;45572;48.804;8.330;2023-03-20T10:48:40;8.32;;;4.40;;
3549;SDS011;45572;48.804;8.330;2023-03-20T10:51:15;8.93;;;5.55;;
3549;SDS011;45572;48.804;8.330;2023-03-20T10:53:48;5.82;;;4.22;;
3549;SDS011;45572;48.804;8.330;2023-03-20T10:56:20;10.80;;;5.10;;
3549;SDS011;45572;48.804;8.330;2023-03-20T10:58:56;6.25;;;4.00;;
3549;SDS011;45572;48.804;8.330;2023-03-20T11:01:29;8.05;;;4.10;;
3549;SDS011;45572;48.804;8.330;2023-03-20T11:04:01;7.40;;;3.85;;
3549;SDS011;45572;48.804;8.330;2023-03-20T11:06:31;6.78;;;5.15;;
3549;SDS011;45572;48.804;8.330;2023-03-20T11:09:09;6.93;;;3.50;;
3549;SDS011;45572;48.804;8.330;2023-03-20T11:11:39;7.85;;;4.03;;
3549;SDS011;45572;48.804;8.330;2023-03-20T11:14:13;3.65;;;2.80;;
3549;SDS011;45572;48.804;8.330;2023-03-20T11:16:46;5.43;;;3.38;;
3549;SDS011;45572;48.804;8.330;2023-03-20T11:19:14;6.28;;;3.35;;
3549;SDS011;45572;48.804;8.330;2023-03-20T11:21:46;5.78;;;3.00;;
3549;SDS011;45572;48.804;8.330;2023-03-20T11:24:23;6.45;;;3.83;;
3549;SDS011;45572;48.804;8.330;2023-03-20T11:26:56;3.67;;;3.03;;
3549;SDS011;45572;48.804;8.330;2023-03-20T11:29:34;4.45;;;3.05;;
3549;SDS011;45572;48.804;8.330;2023-03-20T11:32:03;4.25;;;2.80;;
3549;SDS011;45572;48.804;8.330;2023-03-20T11:34:37;4.50;;;2.73;;
3549;SDS011;45572;48.804;8.330;2023-03-20T11:37:19;5.50;;;4.07;;
3549;SDS011;45572;48.804;8.330;2023-03-20T11:39:55;4.70;;;2.63;;
3549;SDS011;45572;48.804;8.330;2023-03-20T11:42:27;5.70;;;3.33;;
3549;SDS011;45572;48.804;8.330;2023-03-20T11:45:00;7.83;;;3.70;;
3549;SDS011;45572;48.804;8.330;2023-03-20T11:47:34;4.50;;;2.27;;
3549;SDS011;45572;48.804;8.330;2023-03-20T11:50:04;3.70;;;2.83;;
3549;SDS011;45572;48.804;8.330;2023-03-20T11:52:34;3.97;;;2.63;;
3549;SDS011;45572;48.804;8.330;2023-03-20T11:55:07;7.17;;;3.23;;
3549;SDS011;45572;48.804;8.330;2023-03-20T11:57:51;5.13;;;3.20;;
3549;SDS011;45572;48.804;8.330;2023-03-20T12:00:27;4.80;;;3.57;;
3549;SDS011;45572;48.804;8.330;2023-03-20T12:03:14;6.57;;;3.43;;
3549;SDS011;45572;48.804;8.330;2023-03-20T12:06:04;7.57;;;3.60;;
3549;SDS011;45572;48.804;8.330;2023-03-20T12:08:33;4.18;;;2.97;;
3549;SDS011;45572;48.804;8.330;2023-03-20T12:11:17;5.68;;;4.10;;
3549;SDS011;45572;48.804;8.330;2023-03-20T12:13:52;4.30;;;3.10;;
3549;SDS011;45572;48.804;8.330;2023-03-20T12:16:23;5.32;;;3.47;;
3549;SDS011;45572;48.804;8.330;2023-03-20T12:18:56;4.63;;;3.30;;
3549;SDS011;45572;48.804;8.330;2023-03-20T12:21:34;5.43;;;3.35;;
3549;SDS011;45572;48.804;8.330;2023-03-20T12:24:12;4.65;;;3.05;;
3549;SDS011;45572;48.804;8.330;2023-03-20T12:26:53;5.82;;;3.20;;
3549;SDS011;45572;48.804;8.330;2023-03-20T12:29:27;6.32;;;3.30;;
3549;SDS011;45572;48.804;8.330;2023-03-20T12:32:00;6.03;;;3.85;;
3549;SDS011;45572;48.804;8.330;2023-03-20T12:34:33;4.68;;;3.15;;
3549;SDS011;45572;48.804;8.330;2023-03-20T12:37:07;6.22;;;3.92;;
3549;SDS011;45572;48.804;8.330;2023-03-20T12:39:37;6.57;;;3.60;;
3549;SDS011;45572;48.804;8.330;2023-03-20T12:42:10;8.02;;;4.40;;
3549;SDS011;45572;48.804;8.330;2023-03-20T12:44:46;7.93;;;4.82;;
3549;SDS011;45572;48.804;8.330;2023-03-20T12:47:21;10.55;;;5.55;;
3549;SDS011;45572;48.804;8.330;2023-03-20T12:50:13;15.02;;;4.47;;
3549;SDS011;45572;48.804;8.330;2023-03-20T12:52:48;7.13;;;4.65;;
3549;SDS011;45572;48.804;8.330;2023-03-20T12:55:24;8.00;;;4.60;;
3549;SDS011;45572;48.804;8.330;2023-03-20T12:58:02;8.98;;;3.88;;
3549;SDS011;45572;48.804;8.330;2023-03-20T13:00:36;7.07;;;4.47;;
3549;SDS011;45572;48.804;8.330;2023-03-20T13:03:16;7.50;;;4.68;;
3549;SDS011;45572;48.804;8.330;2023-03-20T13:05:54;5.60;;;4.50;;
3549;SDS011;45572;48.804;8.330;2023-03-20T13:08:34;5.22;;;3.72;;
3549;SDS011;45572;48.804;8.330;2023-03-20T13:11:12;5.32;;;3.80;;
3549;SDS011;45572;48.804;8.330;2023-03-20T13:13:49;7.13;;;4.18;;
3549;SDS011;45572;48.804;8.330;2023-03-20T13:16:27;7.95;;;4.80;;
3549;SDS011;45572;48.804;8.330;2023-03-20T13:19:10;4.97;;;3.50;;
3549;SDS011;45572;48.804;8.330;2023-03-20T13:21:43;5.50;;;3.47;;
3549;SDS011;45572;48.804;8.330;2023-03-20T13:24:21;6.45;;;3.70;;
3549;SDS011;45572;48.804;8.330;2023-03-20T13:26:58;4.30;;;2.83;;
3549;SDS011;45572;48.804;8.330;2023-03-20T13:29:37;4.90;;;3.10;;
3549;SDS011;45572;48.804;8.330;2023-03-20T13:32:13;6.32;;;3.28;;
3549;SDS011;45572;48.804;8.330;2023-03-20T13:34:58;4.40;;;2.30;;
3549;SDS011;45572;48.804;8.330;2023-03-20T13:37:38;5.85;;;3.13;;
3549;SDS011;45572;48.804;8.330;2023-03-20T13:40:12;5.57;;;2.53;;
3549;SDS011;45572;48.804;8.330;2023-03-20T13:42:48;4.13;;;2.95;;
3549;SDS011;45572;48.804;8.330;2023-03-20T13:45:25;4.60;;;2.80;;
3549;SDS011;45572;48.804;8.330;2023-03-20T13:47:59;5.43;;;3.78;;
3549;SDS011;45572;48.804;8.330;2023-03-20T13:50:36;4.30;;;2.60;;
3549;SDS011;45572;48.804;8.330;2023-03-20T13:53:15;3.70;;;2.55;;
3549;SDS011;45572;48.804;8.330;2023-03-20T13:55:53;4.95;;;2.67;;
3549;SDS011;45572;48.804;8.330;2023-03-20T13:58:34;3.05;;;2.33;;
3549;SDS011;45572;48.804;8.330;2023-03-20T14:01:17;2.78;;;2.20;;
3549;SDS011;45572;48.804;8.330;2023-03-20T14:03:55;4.35;;;2.28;;
3549;SDS011;45572;48.804;8.330;2023-03-20T14:12:03;2.92;;;2.25;;
3549;SDS011;45572;48.804;8.330;2023-03-20T14:14:38;7.20;;;2.00;;
3549;SDS011;45572;48.804;8.330;2023-03-20T14:17:14;3.50;;;2.40;;
3549;SDS011;45572;48.804;8.330;2023-03-20T14:19:46;2.83;;;2.00;;
3549;SDS011;45572;48.804;8.330;2023-03-20T14:22:16;3.55;;;2.28;;
3549;SDS011;45572;48.804;8.330;2023-03-20T14:24:49;5.47;;;2.60;;
3549;SDS011;45572;48.804;8.330;2023-03-20T14:27:20;2.15;;;1.80;;
3549;SDS011;45572;48.804;8.330;2023-03-20T14:33:24;4.07;;;2.10;;
3549;SDS011;45572;48.804;8.330;2023-03-20T14:38:46;4.75;;;3.10;;
3549;SDS011;45572;48.804;8.330;2023-03-20T14:41:21;1.83;;;1.40;;
3549;SDS011;45572;48.804;8.330;2023-03-20T14:43:55;2.05;;;1.45;;
3549;SDS011;45572;48.804;8.330;2023-03-20T14:46:37;3.60;;;1.70;;
3549;SDS011;45572;48.804;8.330;2023-03-20T14:49:21;3.15;;;1.63;;
3549;SDS011;45572;48.804;8.330;2023-03-20T14:51:57;6.13;;;2.58;;
3549;SDS011;45572;48.804;8.330;2023-03-20T14:54:29;3.08;;;1.88;;
3549;SDS011;45572;48.804;8.330;2023-03-20T14:57:07;3.10;;;1.45;;
3549;SDS011;45572;48.804;8.330;2023-03-20T14:59:37;5.60;;;2.28;;
3549;SDS011;45572;48.804;8.330;2023-03-20T15:02:17;4.10;;;1.95;;
3549;SDS011;45572;48.804;8.330;2023-03-20T15:04:54;6.13;;;1.95;;
3549;SDS011;45572;48.804;8.330;2023-03-20T15:07:24;2.47;;;1.70;;
3549;SDS011;45572;48.804;8.330;2023-03-20T15:09:55;3.60;;;1.50;;
3549;SDS011;45572;48.804;8.330;2023-03-20T15:12:26;3.80;;;1.60;;
3549;SDS011;45572;48.804;8.330;2023-03-20T15:14:56;3.38;;;2.00;;
3549;SDS011;45572;48.804;8.330;2023-03-20T15:17:31;3.55;;;1.80;;
3549;SDS011;45572;48.804;8.330;2023-03-20T15:20:05;9.90;;;1.88;;
3549;SDS011;45572;48.804;8.330;2023-03-20T15:22:48;3.20;;;1.80;;
3549;SDS011;45572;48.804;8.330;2023-03-20T15:25:19;2.03;;;1.40;;
3549;SDS011;45572;48.804;8.330;2023-03-20T15:27:49;3.22;;;1.58;;
3549;SDS011;45572;48.804;8.330;2023-03-20T15:30:19;2.40;;;2.00;;
3549;SDS011;45572;48.804;8.330;2023-03-20T15:32:51;3.15;;;1.70;;
3549;SDS011;45572;48.804;8.330;2023-03-20T15:35:24;3.30;;;1.90;;
3549;SDS011;45572;48.804;8.330;2023-03-20T15:37:56;3.15;;;1.80;;
3549;SDS011;45572;48.804;8.330;2023-03-20T15:40:37;5.18;;;1.85;;
3549;SDS011;45572;48.804;8.330;2023-03-20T15:43:17;2.92;;;1.42;;
3549;SDS011;45572;48.804;8.330;2023-03-20T15:45:47;2.53;;;1.80;;
3549;SDS011;45572;48.804;8.330;2023-03-20T15:48:17;3.55;;;2.05;;
3549;SDS011;45572;48.804;8.330;2023-03-20T15:50:49;1.60;;;1.27;;
3549;SDS011;45572;48.804;8.330;2023-03-20T15:53:22;2.92;;;1.48;;
3549;SDS011;45572;48.804;8.330;2023-03-20T15:55:57;3.40;;;2.28;;